^^
Your Local Weather - Clay, NY Station Historical Data
Daily Summary for August 6, 2017 Units:  English    Metric   Both
« Previous Day
Next Day »
Daily Weekly Monthly Yearly Custom
  High: Low: Average:
Temperature: 76.0 °F 53.0 °F 64.5 °F
Dew Point: 59.6 °F 50.1 °F 53.8 °F
Humidity: 91% 45% 70%
Wind Speed: 4.0mph 0.0mph 0.9mph
Wind Gust: 10.0mph - -
Wind- - WSW
Pressure: 30.03 in 29.94 in -
Precipitation: 0.00 in    
Historical Graphs
 
 
Tabular Data for August 6, 2017
Time Temperature Dew Point Pressure Wind Wind Speed Wind Gust Humidity Rainfall Rate (Hourly) solar
00:04 60.8 °F 50.6 °F 29.94 in Calm   1.0 mph 69% 0.00 in 0 W/m2
00:10 60.6 °F 50.8 °F 29.95 in Calm   1.0 mph 70% 0.00 in 0 W/m2
00:15 60.4 °F 50.6 °F 29.94 in Calm   1.0 mph 70% 0.00 in 0 W/m2
00:22 60.1 °F 50.7 °F 29.94 in Calm     71% 0.00 in 0 W/m2
00:28 59.8 °F 50.4 °F 29.95 in Calm     71% 0.00 in 0 W/m2
00:33 59.5 °F 50.8 °F 29.95 in Calm     73% 0.00 in 0 W/m2
00:40 59.4 °F 50.7 °F 29.95 in Calm     73% 0.00 in 0 W/m2
00:45 59.2 °F 50.9 °F 29.95 in Calm   2.0 mph 74% 0.00 in 0 W/m2
00:52 59.1 °F 50.8 °F 29.95 in Calm     74% 0.00 in 0 W/m2
00:58 59.0 °F 50.7 °F 29.96 in Calm     74% 0.00 in 0 W/m2
01:04 58.8 °F 50.9 °F 29.96 in Calm     75% 0.00 in 0 W/m2
01:10 58.7 °F 50.8 °F 29.96 in Calm     75% 0.00 in 0 W/m2
01:16 58.6 °F 51.1 °F 29.96 in Calm   1.0 mph 76% 0.00 in 0 W/m2
01:22 58.5 °F 51.0 °F 29.96 in Calm     76% 0.00 in 0 W/m2
01:28 58.2 °F 50.7 °F 29.96 in Calm     76% 0.00 in 0 W/m2
01:34 57.9 °F 50.7 °F 29.96 in Calm     77% 0.00 in 0 W/m2
01:40 57.5 °F 50.7 °F 29.96 in Calm     78% 0.00 in 0 W/m2
01:46 57.1 °F 51.0 °F 29.96 in Calm     80% 0.00 in 0 W/m2
01:52 56.7 °F 50.9 °F 29.96 in Calm     81% 0.00 in 0 W/m2
01:58 56.3 °F 50.9 °F 29.96 in Calm     82% 0.00 in 0 W/m2
02:04 56.1 °F 51.0 °F 29.96 in Calm     83% 0.00 in 0 W/m2
02:10 55.8 °F 51.0 °F 29.96 in Calm     84% 0.00 in 0 W/m2
02:18 55.5 °F 50.7 °F 29.95 in Calm     84% 0.00 in 0 W/m2
02:30 55.0 °F 50.9 °F 29.95 in Calm     86% 0.00 in 0 W/m2
02:36 54.9 °F 50.8 °F 29.95 in Calm     86% 0.00 in 0 W/m2
02:42 54.6 °F 50.8 °F 29.96 in Calm     87% 0.00 in 0 W/m2
02:48 54.5 °F 50.7 °F 29.96 in Calm     87% 0.00 in 0 W/m2
02:54 54.4 °F 50.6 °F 29.95 in Calm     87% 0.00 in 0 W/m2
03:00 54.3 °F 50.8 °F 29.95 in Calm     88% 0.00 in 0 W/m2
03:06 54.2 °F 50.7 °F 29.95 in Calm     88% 0.00 in 0 W/m2
03:12 54.0 °F 50.5 °F 29.96 in Calm     88% 0.00 in 0 W/m2
03:18 53.8 °F 50.3 °F 29.96 in Calm     88% 0.00 in 0 W/m2
03:24 53.6 °F 50.1 °F 29.96 in Calm     88% 0.00 in 0 W/m2
03:30 53.6 °F 50.4 °F 29.96 in Calm     89% 0.00 in 0 W/m2
03:36 53.5 °F 50.3 °F 29.96 in Calm     89% 0.00 in 0 W/m2
03:42 53.4 °F 50.2 °F 29.96 in Calm     89% 0.00 in 0 W/m2
03:48 53.4 °F 50.5 °F 29.96 in Calm     90% 0.00 in 0 W/m2
03:54 53.4 °F 50.5 °F 29.96 in Calm     90% 0.00 in 0 W/m2
04:00 53.3 °F 50.4 °F 29.96 in Calm     90% 0.00 in 0 W/m2
04:06 53.2 °F 50.3 °F 29.96 in Calm     90% 0.00 in 0 W/m2
04:12 53.2 °F 50.3 °F 29.97 in Calm     90% 0.00 in 0 W/m2
04:18 53.2 °F 50.3 °F 29.97 in Calm     90% 0.00 in 0 W/m2
04:24 53.3 °F 50.7 °F 29.97 in Calm     91% 0.00 in 0 W/m2
04:30 53.2 °F 50.6 °F 29.98 in Calm     91% 0.00 in 0 W/m2
04:42 53.0 °F 50.4 °F 29.98 in Calm     91% 0.00 in 0 W/m2
04:48 53.0 °F 50.4 °F 29.98 in Calm     91% 0.00 in 0 W/m2
05:00 53.4 °F 50.8 °F 29.98 in Calm     91% 0.00 in 0 W/m2
05:06 53.7 °F 51.1 °F 29.98 in Calm   1.0 mph 91% 0.00 in 0 W/m2
05:12 53.8 °F 51.2 °F 29.98 in Calm   2.0 mph 91% 0.00 in 0 W/m2
05:20 53.8 °F 51.2 °F 29.98 in Calm     91% 0.00 in 0 W/m2
05:26 53.8 °F 51.2 °F 29.98 in Calm     91% 0.00 in 0 W/m2
05:32 53.8 °F 51.2 °F 29.98 in Calm     91% 0.00 in 0 W/m2
05:38 53.8 °F 50.9 °F 29.99 in Calm     90% 0.00 in 0 W/m2
05:44 53.7 °F 50.8 °F 29.99 in Calm     90% 0.00 in 0 W/m2
05:50 53.7 °F 50.8 °F 29.99 in Calm     90% 0.00 in 0 W/m2
05:56 53.8 °F 50.9 °F 29.99 in Calm   1.0 mph 90% 0.00 in 0 W/m2
06:02 53.8 °F 50.9 °F 29.99 in Calm     90% 0.00 in 5 W/m2
06:08 53.9 °F 51.0 °F 29.99 in Calm     90% 0.00 in 7 W/m2
06:14 54.1 °F 51.2 °F 29.99 in Calm   1.0 mph 90% 0.00 in 9 W/m2
06:18 54.1 °F 51.2 °F 30.00 in Calm   1.0 mph 90% 0.00 in 11 W/m2
06:24 54.1 °F 51.2 °F 30.00 in Calm   2.0 mph 90% 0.00 in 14 W/m2
06:30 54.2 °F 51.0 °F 30.00 in NW 1.0 mph 2.0 mph 89% 0.00 in 19 W/m2
06:36 54.5 °F 51.3 °F 30.00 in NW 1.0 mph 2.0 mph 89% 0.00 in 25 W/m2
06:42 54.7 °F 51.2 °F 30.00 in NW 1.0 mph 1.0 mph 88% 0.00 in 40 W/m2
06:48 55.0 °F 51.5 °F 30.01 in SW 1.0 mph 1.0 mph 88% 0.00 in 77 W/m2
06:54 55.4 °F 51.6 °F 30.01 in SW 1.0 mph 1.0 mph 87% 0.00 in 81 W/m2
07:00 56.1 °F 52.3 °F 30.01 in Calm     87% 0.00 in 118 W/m2
07:06 56.7 °F 52.6 °F 30.01 in Calm     86% 0.00 in 125 W/m2
07:12 57.3 °F 52.8 °F 30.01 in Calm     85% 0.00 in 137 W/m2
07:18 57.9 °F 53.1 °F 30.01 in Calm     84% 0.00 in 153 W/m2
07:24 58.5 °F 53.4 °F 30.01 in Calm     83% 0.00 in 169 W/m2
07:30 59.1 °F 53.6 °F 30.00 in Calm     82% 0.00 in 186 W/m2
07:36 59.5 °F 53.7 °F 30.00 in Calm   3.0 mph 81% 0.00 in 207 W/m2
07:42 60.0 °F 53.8 °F 30.00 in Calm     80% 0.00 in 223 W/m2
07:48 60.3 °F 53.8 °F 30.01 in Calm     79% 0.00 in 237 W/m2
07:54 60.6 °F 54.0 °F 30.01 in Calm     79% 0.00 in 253 W/m2
08:00 61.1 °F 54.5 °F 30.01 in Calm   1.0 mph 79% 0.00 in 271 W/m2
08:06 61.6 °F 54.3 °F 30.01 in Calm   1.0 mph 77% 0.00 in 295 W/m2
08:12 61.9 °F 54.6 °F 30.01 in Calm     77% 0.00 in 315 W/m2
08:18 62.3 °F 54.6 °F 30.01 in Calm     76% 0.00 in 334 W/m2
08:24 62.6 °F 54.9 °F 30.01 in Calm   2.0 mph 76% 0.00 in 130 W/m2
08:30 62.7 °F 55.0 °F 30.01 in WSW 1.0 mph 1.0 mph 76% 0.00 in 343 W/m2
08:36 63.0 °F 54.9 °F 30.01 in WSW 1.0 mph 1.0 mph 75% 0.00 in 385 W/m2
08:42 63.2 °F 54.4 °F 30.01 in WSW 1.0 mph 2.0 mph 73% 0.00 in 401 W/m2
08:48 63.7 °F 55.6 °F 30.01 in WSW 1.0 mph 2.0 mph 75% 0.00 in 422 W/m2
08:54 64.3 °F 55.5 °F 30.01 in WSW 1.0 mph 3.0 mph 73% 0.00 in 438 W/m2
09:00 64.4 °F 55.2 °F 30.01 in WSW 1.0 mph 6.0 mph 72% 0.00 in 457 W/m2
09:06 64.6 °F 55.4 °F 30.02 in WSW 1.0 mph 6.0 mph 72% 0.00 in 476 W/m2
09:12 65.2 °F 56.3 °F 30.02 in SW 1.0 mph 3.0 mph 73% 0.00 in 492 W/m2
09:18 65.5 °F 55.5 °F 30.02 in West 2.0 mph 5.0 mph 70% 0.00 in 512 W/m2
09:26 65.8 °F 56.1 °F 30.02 in SSW 2.0 mph 3.0 mph 71% 0.00 in 536 W/m2
09:32 66.1 °F 55.6 °F 30.02 in WSW 1.0 mph 5.0 mph 69% 0.00 in 561 W/m2
09:38 66.4 °F 56.3 °F 30.02 in SSW 2.0 mph 5.0 mph 70% 0.00 in 580 W/m2
09:44 66.8 °F 56.7 °F 30.02 in WSW 2.0 mph 4.0 mph 70% 0.00 in 594 W/m2
09:50 67.2 °F 55.9 °F 30.02 in SSW 2.0 mph 4.0 mph 67% 0.00 in 612 W/m2
09:56 67.5 °F 57.0 °F 30.02 in WNW 1.0 mph 4.0 mph 69% 0.00 in 629 W/m2
10:02 68.0 °F 56.2 °F 30.02 in North 1.0 mph 1.0 mph 66% 0.00 in 647 W/m2
10:08 68.4 °F 57.0 °F 30.02 in SW 1.0 mph 3.0 mph 67% 0.00 in 661 W/m2
10:14 69.0 °F 57.6 °F 30.02 in SW 1.0 mph 3.0 mph 67% 0.00 in 675 W/m2
10:20 69.2 °F 56.1 °F 30.02 in WNW 1.0 mph 2.0 mph 63% 0.00 in 691 W/m2
10:26 69.6 °F 55.6 °F 30.02 in North 2.0 mph 2.0 mph 61% 0.00 in 708 W/m2
10:32 70.4 °F 58.5 °F 30.02 in WSW 2.0 mph 2.0 mph 66% 0.00 in 729 W/m2
10:38 70.2 °F 57.0 °F 30.02 in SSW 2.0 mph 5.0 mph 63% 0.00 in 749 W/m2
10:44 70.1 °F 55.6 °F 30.02 in WSW 2.0 mph 3.0 mph 60% 0.00 in 756 W/m2
10:50 70.5 °F 56.9 °F 30.02 in NNE 1.0 mph 1.0 mph 62% 0.00 in 777 W/m2
10:56 70.3 °F 55.3 °F 30.02 in SW 2.0 mph 8.0 mph 59% 0.00 in 821 W/m2
11:02 70.8 °F 54.3 °F 30.02 in NW 2.0 mph 3.0 mph 56% 0.00 in 816 W/m2
11:08 71.3 °F 53.8 °F 30.02 in NW 2.0 mph 7.0 mph 54% 0.00 in 912 W/m2
11:14 70.6 °F 53.6 °F 30.02 in West 1.0 mph 2.0 mph 55% 0.00 in 884 W/m2
11:20 71.0 °F 53.0 °F 30.02 in NNW 1.0 mph 2.0 mph 53% 0.00 in 271 W/m2
11:26 70.2 °F 53.3 °F 30.02 in WSW 3.0 mph 6.0 mph 55% 0.00 in 213 W/m2
11:32 69.7 °F 55.6 °F 30.01 in SSW 2.0 mph 3.0 mph 61% 0.00 in 928 W/m2
11:38 71.0 °F 53.0 °F 30.01 in SW 2.0 mph 4.0 mph 53% 0.00 in 1007 W/m2
11:46 71.6 °F 56.0 °F 30.01 in North 3.0 mph 4.0 mph 58% 0.00 in 1062 W/m2
11:52 72.4 °F 56.3 °F 30.01 in NNW 2.0 mph 2.0 mph 57% 0.00 in 977 W/m2
11:58 71.8 °F 53.2 °F 30.01 in WNW 2.0 mph 2.0 mph 52% 0.00 in 185 W/m2
12:04 72.0 °F 54.9 °F 30.02 in WNW 2.0 mph 2.0 mph 55% 0.00 in 316 W/m2
12:10 71.4 °F 54.4 °F 30.02 in North 2.0 mph 3.0 mph 55% 0.00 in 1072 W/m2
12:16 71.8 °F 53.2 °F 30.02 in West 4.0 mph 4.0 mph 52% 0.00 in 988 W/m2
12:22 73.3 °F 56.2 °F 30.02 in NW 3.0 mph 3.0 mph 55% 0.00 in 956 W/m2
12:28 73.6 °F 54.9 °F 30.02 in NNW 1.0 mph 3.0 mph 52% 0.00 in 545 W/m2
12:40 72.6 °F 54.0 °F 30.02 in NW 2.0 mph 2.0 mph 52% 0.00 in 325 W/m2
12:46 72.9 °F 55.8 °F 30.03 in WSW 2.0 mph 2.0 mph 55% 0.00 in 840 W/m2
12:52 72.9 °F 53.7 °F 30.02 in West 2.0 mph 2.0 mph 51% 0.00 in 490 W/m2
12:58 72.8 °F 53.1 °F 30.02 in SW 3.0 mph 3.0 mph 50% 0.00 in 997 W/m2
13:04 72.2 °F 57.5 °F 30.02 in WSW 3.0 mph 4.0 mph 60% 0.00 in 410 W/m2
13:10 72.1 °F 55.0 °F 30.02 in NW 2.0 mph 3.0 mph 55% 0.00 in 288 W/m2
13:16 71.9 °F 54.9 °F 30.02 in NW 1.0 mph 3.0 mph 55% 0.00 in 376 W/m2
13:22 72.5 °F 56.4 °F 30.02 in Calm   1.0 mph 57% 0.00 in 359 W/m2
13:28 73.2 °F 55.6 °F 30.02 in NNW 1.0 mph 1.0 mph 54% 0.00 in 958 W/m2
13:34 73.0 °F 54.3 °F 30.02 in West 2.0 mph 3.0 mph 52% 0.00 in 1088 W/m2
13:40 74.0 °F 54.7 °F 30.02 in South 3.0 mph 4.0 mph 51% 0.00 in 976 W/m2
13:46 73.6 °F 53.8 °F 30.02 in West 2.0 mph 4.0 mph 50% 0.00 in 998 W/m2
13:58 72.2 °F 53.6 °F 30.01 in NW 1.0 mph 2.0 mph 52% 0.00 in 921 W/m2
14:04 73.7 °F 53.9 °F 30.01 in SSW 1.0 mph 1.0 mph 50% 0.00 in 939 W/m2
14:10 73.7 °F 53.9 °F 30.01 in WSW 1.0 mph 2.0 mph 50% 0.00 in 229 W/m2
14:16 72.9 °F 56.3 °F 30.01 in NW 1.0 mph 5.0 mph 56% 0.00 in 239 W/m2
14:22 72.8 °F 57.6 °F 30.01 in North 2.0 mph 2.0 mph 59% 0.00 in 969 W/m2
14:28 74.6 °F 55.8 °F 30.01 in NW 1.0 mph 3.0 mph 52% 0.00 in 960 W/m2
14:34 74.7 °F 53.7 °F 30.01 in SW 2.0 mph 2.0 mph 48% 0.00 in 949 W/m2
14:40 73.7 °F 55.5 °F 30.01 in SW 2.0 mph 2.0 mph 53% 0.00 in 207 W/m2
14:46 73.8 °F 56.6 °F 30.01 in West 1.0 mph 2.0 mph 55% 0.00 in 900 W/m2
14:52 74.7 °F 54.8 °F 30.01 in West 1.0 mph 4.0 mph 50% 0.00 in 214 W/m2
14:58 73.7 °F 53.3 °F 30.01 in WSW 1.0 mph 4.0 mph 49% 0.00 in 995 W/m2
15:04 73.2 °F 53.4 °F 30.01 in SW 2.0 mph 6.0 mph 50% 0.00 in 229 W/m2
15:10 74.3 °F 57.6 °F 30.01 in NW 2.0 mph 2.0 mph 56% 0.00 in 884 W/m2
15:16 73.8 °F 54.5 °F 30.01 in WNW 1.0 mph 2.0 mph 51% 0.00 in 214 W/m2
15:22 73.3 °F 53.5 °F 30.00 in SW 3.0 mph 6.0 mph 50% 0.00 in 636 W/m2
15:28 73.0 °F 54.3 °F 30.00 in SSW 4.0 mph 6.0 mph 52% 0.00 in 250 W/m2
15:34 73.4 °F 59.6 °F 30.00 in WSW 1.0 mph 3.0 mph 62% 0.00 in 944 W/m2
15:40 74.8 °F 57.0 °F 30.00 in West 2.0 mph 2.0 mph 54% 0.00 in 777 W/m2
15:46 75.0 °F 54.0 °F 30.00 in SW 2.0 mph 7.0 mph 48% 0.00 in 758 W/m2
15:52 75.0 °F 54.0 °F 30.00 in WSW 2.0 mph 5.0 mph 48% 0.00 in 740 W/m2
15:58 75.4 °F 53.8 °F 29.99 in NNW 3.0 mph 5.0 mph 47% 0.00 in 722 W/m2
16:04 75.3 °F 54.3 °F 29.99 in WNW 2.0 mph 5.0 mph 48% 0.00 in 707 W/m2
16:14 75.9 °F 57.0 °F 29.99 in SSW 2.0 mph 3.0 mph 52% 0.00 in 680 W/m2
16:20 76.0 °F 54.3 °F 29.99 in WSW 1.0 mph 2.0 mph 47% 0.00 in 677 W/m2
16:26 75.8 °F 56.4 °F 29.99 in NNW 1.0 mph 2.0 mph 51% 0.00 in 650 W/m2
16:38 75.3 °F 52.5 °F 29.99 in NE 3.0 mph 5.0 mph 45% 0.00 in 605 W/m2
16:44 75.4 °F 52.6 °F 29.99 in SSW 4.0 mph 6.0 mph 45% 0.00 in 598 W/m2
16:50 75.3 °F 54.8 °F 29.99 in NW 3.0 mph 3.0 mph 49% 0.00 in 598 W/m2
16:56 75.3 °F 54.3 °F 29.99 in WSW 2.0 mph 4.0 mph 48% 0.00 in 466 W/m2
17:02 75.0 °F 53.4 °F 29.99 in South 3.0 mph 8.0 mph 47% 0.00 in 550 W/m2
17:08 74.9 °F 54.4 °F 29.99 in SW 3.0 mph 8.0 mph 49% 0.00 in 74 W/m2
17:14 74.7 °F 53.1 °F 29.99 in WSW 3.0 mph 5.0 mph 47% 0.00 in 88 W/m2
17:20 74.4 °F 52.9 °F 29.99 in WSW 4.0 mph 4.0 mph 47% 0.00 in 97 W/m2
17:26 73.9 °F 54.1 °F 29.99 in SSW 3.0 mph 4.0 mph 50% 0.00 in 128 W/m2
17:32 73.7 °F 53.9 °F 29.99 in SSW 3.0 mph 4.0 mph 50% 0.00 in 100 W/m2
17:38 73.8 °F 53.4 °F 29.99 in SW 3.0 mph 6.0 mph 49% 0.00 in 97 W/m2
17:44 74.1 °F 54.3 °F 29.99 in West 2.0 mph 3.0 mph 50% 0.00 in 77 W/m2
17:50 74.2 °F 53.8 °F 29.99 in West 3.0 mph 4.0 mph 49% 0.00 in 67 W/m2
17:56 74.1 °F 53.2 °F 29.99 in WSW 4.0 mph 7.0 mph 48% 0.00 in 58 W/m2
18:02 73.3 °F 52.4 °F 29.99 in SW 2.0 mph 2.0 mph 48% 0.00 in 74 W/m2
18:08 72.9 °F 53.2 °F 29.99 in SW 3.0 mph 5.0 mph 50% 0.00 in 128 W/m2
18:14 72.6 °F 52.9 °F 29.99 in SW 3.0 mph 4.0 mph 50% 0.00 in 113 W/m2
18:20 72.5 °F 53.9 °F 29.99 in WSW 2.0 mph 2.0 mph 52% 0.00 in 120 W/m2
18:26 72.4 °F 53.8 °F 29.99 in WSW 2.0 mph 10.0 mph 52% 0.00 in 88 W/m2
18:32 72.3 °F 53.2 °F 29.99 in WSW 2.0 mph 2.0 mph 51% 0.00 in 81 W/m2
18:38 72.1 °F 53.0 °F 29.99 in WSW 2.0 mph 5.0 mph 51% 0.00 in 69 W/m2
18:44 72.0 °F 53.4 °F 29.99 in WSW 2.0 mph 2.0 mph 52% 0.00 in 60 W/m2
18:50 71.9 °F 54.3 °F 29.99 in WSW 1.0 mph 1.0 mph 54% 0.00 in 47 W/m2
18:56 71.8 °F 53.7 °F 29.99 in WSW 1.0 mph 2.0 mph 53% 0.00 in 40 W/m2
19:02 71.7 °F 53.7 °F 29.99 in WSW 1.0 mph 2.0 mph 53% 0.00 in 39 W/m2
19:08 71.5 °F 54.0 °F 30.00 in SW 1.0 mph 3.0 mph 54% 0.00 in 46 W/m2
19:14 71.4 °F 54.4 °F 30.00 in WSW 1.0 mph 7.0 mph 55% 0.00 in 54 W/m2
19:20 71.4 °F 54.9 °F 30.00 in WSW 1.0 mph 2.0 mph 56% 0.00 in 60 W/m2
19:26 71.5 °F 54.5 °F 30.00 in SW 1.0 mph 2.0 mph 55% 0.00 in 63 W/m2
19:32 71.5 °F 55.0 °F 30.00 in WSW 1.0 mph 2.0 mph 56% 0.00 in 47 W/m2
19:38 71.3 °F 55.3 °F 30.00 in WSW 1.0 mph 3.0 mph 57% 0.00 in 35 W/m2
19:44 71.0 °F 55.5 °F 30.00 in West 1.0 mph 3.0 mph 58% 0.00 in 21 W/m2
19:50 70.6 °F 55.1 °F 30.00 in West 1.0 mph 1.0 mph 58% 0.00 in 14 W/m2
19:56 70.3 °F 55.3 °F 30.00 in Calm   1.0 mph 59% 0.00 in 12 W/m2
20:03 69.8 °F 55.3 °F 30.00 in Calm     60% 0.00 in 11 W/m2
20:08 69.3 °F 56.6 °F 29.99 in Calm     64% 0.00 in 7 W/m2
20:14 68.2 °F 56.8 °F 29.99 in Calm     67% 0.00 in 5 W/m2
20:20 66.9 °F 56.4 °F 29.99 in Calm     69% 0.00 in 0 W/m2
20:26 66.1 °F 56.8 °F 29.99 in Calm     72% 0.00 in 0 W/m2
20:32 65.4 °F 56.5 °F 29.99 in Calm     73% 0.00 in 0 W/m2
20:38 64.6 °F 56.5 °F 29.99 in Calm     75% 0.00 in 0 W/m2
20:44 64.2 °F 56.5 °F 29.99 in Calm     76% 0.00 in 0 W/m2
20:50 63.8 °F 56.4 °F 29.99 in Calm     77% 0.00 in 0 W/m2
20:56 63.2 °F 56.2 °F 29.99 in Calm     78% 0.00 in 0 W/m2
21:02 62.7 °F 55.7 °F 29.99 in Calm     78% 0.00 in 0 W/m2
21:08 62.4 °F 55.8 °F 29.99 in Calm     79% 0.00 in 0 W/m2
21:14 62.2 °F 55.6 °F 30.00 in Calm     79% 0.00 in 0 W/m2
21:20 62.0 °F 55.8 °F 30.00 in Calm     80% 0.00 in 0 W/m2
21:26 61.7 °F 55.5 °F 30.00 in Calm     80% 0.00 in 0 W/m2
21:32 61.3 °F 55.1 °F 30.01 in Calm     80% 0.00 in 0 W/m2
21:38 61.0 °F 55.1 °F 30.00 in Calm     81% 0.00 in 0 W/m2
21:44 60.9 °F 55.7 °F 30.00 in Calm     83% 0.00 in 0 W/m2
21:50 60.8 °F 55.9 °F 30.00 in Calm     84% 0.00 in 0 W/m2
21:56 60.6 °F 55.7 °F 30.00 in Calm     84% 0.00 in 0 W/m2
22:02 60.4 °F 55.9 °F 30.01 in Calm     85% 0.00 in 0 W/m2
22:08 60.4 °F 56.5 °F 30.01 in Calm     87% 0.00 in 0 W/m2
22:14 60.2 °F 56.3 °F 30.01 in Calm     87% 0.00 in 0 W/m2
22:20 60.0 °F 56.4 °F 30.00 in Calm     88% 0.00 in 0 W/m2
22:26 59.7 °F 56.1 °F 30.00 in Calm     88% 0.00 in 0 W/m2
22:32 59.5 °F 55.9 °F 30.00 in Calm     88% 0.00 in 0 W/m2
22:38 59.2 °F 56.0 °F 30.01 in Calm     89% 0.00 in 0 W/m2
22:44 59.0 °F 55.8 °F 30.01 in Calm     89% 0.00 in 0 W/m2
22:50 58.7 °F 55.5 °F 30.01 in Calm     89% 0.00 in 0 W/m2
22:56 58.4 °F 55.2 °F 30.01 in Calm     89% 0.00 in 0 W/m2
23:03 58.3 °F 55.1 °F 30.01 in Calm     89% 0.00 in 0 W/m2
23:14 58.0 °F 54.8 °F 30.01 in Calm     89% 0.00 in 0 W/m2
23:20 57.9 °F 54.7 °F 30.01 in Calm     89% 0.00 in 0 W/m2
23:26 58.0 °F 55.1 °F 30.01 in Calm     90% 0.00 in 0 W/m2
23:32 58.0 °F 55.1 °F 30.01 in Calm     90% 0.00 in 0 W/m2
23:38 58.1 °F 55.2 °F 30.01 in Calm     90% 0.00 in 0 W/m2
23:44 58.4 °F 55.5 °F 30.01 in Calm     90% 0.00 in 0 W/m2
23:50 58.5 °F 55.6 °F 30.01 in Calm     90% 0.00 in 0 W/m2
23:56 58.6 °F 55.7 °F 30.01 in Calm     90% 0.00 in 0 W/m2
Country Meadow, Clay, NY, USA
Compliments of Weather Underground - 2 mb